Time;durP1;ratioP1;P1;durP2;ratioP2;P2;SDS_P1;SDS_P2;PMS_P1;PMS_P2;Temp;Humidity;BMP_temperature;BMP_pressure;BME280_temperature;BME280_humidity;BME280_pressure;Samples;Min_cycle;Max_cycle;Signal;HPM_P1;HPM_P2
2021/06/27 00:00:16;;;;;;;11.23;6.55;;;17.40;99.90;;;;;;4991020;28;20177;-85
2021/06/27 00:02:41;;;;;;;7.90;5.88;;;17.40;99.90;;;;;;4990877;28;20232;-85
2021/06/27 00:05:09;;;;;;;7.25;5.22;;;17.40;99.90;;;;;;4990766;28;20636;-86
2021/06/27 00:07:35;;;;;;;5.60;5.05;;;17.40;99.90;;;;;;4990113;28;20621;-85
2021/06/27 00:10:03;;;;;;;7.40;5.40;;;17.40;99.90;;;;;;4990899;28;20173;-85
2021/06/27 00:12:29;;;;;;;5.88;5.28;;;17.40;99.90;;;;;;4990632;28;20207;-85
2021/06/27 00:14:55;;;;;;;5.88;5.28;;;17.40;99.90;;;;;;4990849;28;20195;-85
2021/06/27 00:17:20;;;;;;;6.70;6.03;;;17.30;99.90;;;;;;4990599;28;20172;-84
2021/06/27 00:19:46;;;;;;;7.43;6.03;;;17.20;99.90;;;;;;4990627;28;20168;-85
2021/06/27 00:22:12;;;;;;;7.38;6.35;;;17.10;99.90;;;;;;4990334;28;20201;-84
2021/06/27 00:24:38;;;;;;;6.93;6.20;;;17.20;99.90;;;;;;4990678;28;20176;-85
2021/06/27 00:27:04;;;;;;;7.53;6.72;;;17.10;99.90;;;;;;4990351;28;20783;-84
2021/06/27 00:29:31;;;;;;;8.32;7.45;;;17.00;99.90;;;;;;4975559;28;20161;-85
2021/06/27 00:31:56;;;;;;;7.88;7.07;;;16.90;99.90;;;;;;4990323;28;20286;-85
2021/06/27 00:34:22;;;;;;;7.03;6.15;;;16.80;99.90;;;;;;4990244;28;20196;-85
2021/06/27 00:36:48;;;;;;;7.55;6.32;;;16.80;99.90;;;;;;4990174;28;20267;-85
2021/06/27 00:39:13;;;;;;;8.60;6.50;;;16.90;99.90;;;;;;4989967;28;20169;-88
2021/06/27 00:41:39;;;;;;;7.03;6.13;;;16.90;99.90;;;;;;4989907;28;20283;-84
2021/06/27 00:44:05;;;;;;;7.72;6.45;;;16.80;99.90;;;;;;4990148;28;20173;-85
2021/06/27 00:46:32;;;;;;;7.88;6.03;;;16.70;99.90;;;;;;4989878;28;20742;-85
2021/06/27 00:48:58;;;;;;;8.02;6.40;;;16.60;99.90;;;;;;4990117;28;20211;-85
2021/06/27 00:51:23;;;;;;;7.38;6.32;;;16.60;99.90;;;;;;4989783;28;20204;-85
2021/06/27 00:53:50;;;;;;;7.35;6.10;;;16.60;99.90;;;;;;4990032;28;20185;-85
2021/06/27 00:56:17;;;;;;;6.10;5.45;;;16.50;99.90;;;;;;4989985;28;20197;-84
2021/06/27 00:58:44;;;;;;;8.07;6.05;;;16.50;99.90;;;;;;4990002;28;20678;-85
2021/06/27 01:01:10;;;;;;;7.22;6.53;;;16.40;99.90;;;;;;4989988;28;20208;-84
2021/06/27 01:03:36;;;;;;;7.65;6.38;;;16.40;99.90;;;;;;4989634;28;20228;-85
2021/06/27 01:06:03;;;;;;;7.03;6.20;;;16.30;99.90;;;;;;4973450;28;20200;-85
2021/06/27 01:08:28;;;;;;;8.13;6.50;;;16.20;99.90;;;;;;4989927;28;20165;-85
2021/06/27 01:10:55;;;;;;;7.75;6.40;;;16.20;99.90;;;;;;4989739;28;20176;-85
2021/06/27 01:13:22;;;;;;;7.68;6.35;;;16.20;99.90;;;;;;4989604;28;20196;-85
2021/06/27 01:15:52;;;;;;;7.78;5.88;;;16.20;99.90;;;;;;4989645;28;20482;-84
2021/06/27 01:18:18;;;;;;;6.93;6.28;;;16.20;99.90;;;;;;4989445;28;20263;-85
2021/06/27 01:20:45;;;;;;;11.45;6.40;;;16.20;99.90;;;;;;4988901;28;20300;-85
2021/06/27 01:23:13;;;;;;;6.60;5.50;;;16.20;99.90;;;;;;4989431;28;20204;-85
2021/06/27 01:25:42;;;;;;;8.95;5.45;;;16.20;99.90;;;;;;4989523;28;20208;-84
2021/06/27 01:28:09;;;;;;;11.80;5.75;;;16.10;99.90;;;;;;4989512;28;20637;-84
2021/06/27 01:30:35;;;;;;;8.32;5.72;;;16.00;99.90;;;;;;4989424;28;20172;-85
2021/06/27 01:33:05;;;;;;;9.90;5.70;;;16.10;99.90;;;;;;4989367;28;20335;-85
2021/06/27 01:35:32;;;;;;;7.22;5.60;;;16.00;99.90;;;;;;4989267;28;20259;-85
2021/06/27 01:37:59;;;;;;;5.97;5.32;;;16.00;99.90;;;;;;4989398;28;20176;-85
2021/06/27 01:40:30;;;;;;;8.10;5.13;;;15.90;99.90;;;;;;4989452;28;20267;-84
2021/06/27 01:43:21;;;;;;;10.02;5.95;;;15.90;99.90;;;;;;4989184;28;20639;-84
2021/06/27 01:45:51;;;;;;;7.43;6.10;;;15.90;99.90;;;;;;4989233;28;20197;-84
2021/06/27 01:48:17;;;;;;;7.70;5.93;;;15.90;99.90;;;;;;4989459;28;20208;-84
2021/06/27 01:50:46;;;;;;;6.80;6.10;;;15.80;99.90;;;;;;4989091;28;20203;-85
2021/06/27 01:53:14;;;;;;;6.43;5.82;;;15.80;99.90;;;;;;4988860;28;20192;-85
2021/06/27 01:55:41;;;;;;;8.30;5.68;;;15.80;99.90;;;;;;4989120;28;20172;-86
2021/06/27 01:58:08;;;;;;;5.68;5.13;;;15.70;99.90;;;;;;4988746;28;20177;-85
2021/06/27 02:00:37;;;;;;;6.07;5.47;;;15.70;99.90;;;;;;4972980;28;20173;-85
2021/06/27 02:03:04;;;;;;;6.45;5.85;;;15.70;99.90;;;;;;4972903;28;20664;-84
2021/06/27 02:05:30;;;;;;;7.25;5.90;;;15.70;99.90;;;;;;4972759;28;20595;-85
2021/06/27 02:07:58;;;;;;;6.40;5.78;;;15.70;99.90;;;;;;4973029;28;20668;-85
2021/06/27 02:10:25;;;;;;;5.82;5.18;;;15.70;99.90;;;;;;4973032;28;20184;-85
2021/06/27 02:12:56;;;;;;;7.47;5.93;;;15.70;99.90;;;;;;4972787;28;20561;-84
2021/06/27 02:15:23;;;;;;;6.45;5.57;;;15.70;99.90;;;;;;4972882;28;20180;-85
2021/06/27 02:18:16;;;;;;;7.90;6.10;;;15.70;99.90;;;;;;4973026;28;20180;-85
2021/06/27 02:20:43;;;;;;;8.48;5.93;;;15.70;99.90;;;;;;4972714;28;20173;-85
2021/06/27 02:23:09;;;;;;;7.93;6.15;;;15.70;99.90;;;;;;4972785;28;20205;-85
2021/06/27 02:25:34;;;;;;;9.77;5.70;;;15.70;99.90;;;;;;4972687;28;20275;-84
2021/06/27 02:28:00;;;;;;;12.82;5.80;;;15.70;99.90;;;;;;4972857;28;20617;-84
2021/06/27 02:30:26;;;;;;;12.10;5.25;;;15.70;99.90;;;;;;4972904;28;20165;-85
2021/06/27 02:32:51;;;;;;;18.40;5.30;;;15.70;99.90;;;;;;4976318;28;20200;-85
2021/06/27 02:35:17;;;;;;;40.67;8.30;;;15.70;99.90;;;;;;4976225;28;20667;-85
2021/06/27 02:37:43;;;;;;;12.57;6.03;;;15.60;99.90;;;;;;4976322;28;20659;-85
2021/06/27 02:40:11;;;;;;;10.55;5.93;;;15.60;99.90;;;;;;4976317;28;20188;-85
2021/06/27 02:42:37;;;;;;;6.75;5.70;;;15.50;99.90;;;;;;4975889;28;20240;-84
2021/06/27 02:45:06;;;;;;;10.60;5.63;;;15.50;99.90;;;;;;4976091;28;20200;-84
2021/06/27 02:47:32;;;;;;;7.53;5.93;;;15.50;99.90;;;;;;4976089;28;20555;-85
2021/06/27 02:49:57;;;;;;;9.38;5.70;;;15.50;99.90;;;;;;4976079;28;20264;-85
2021/06/27 02:52:23;;;;;;;9.07;5.65;;;15.50;99.90;;;;;;4975895;28;20196;-85
2021/06/27 02:54:49;;;;;;;7.07;5.88;;;15.50;99.90;;;;;;4976169;28;20172;-84
2021/06/27 02:57:14;;;;;;;13.50;5.43;;;15.50;99.90;;;;;;5236283;23;20256;-96
2021/06/27 02:59:40;;;;;;;8.82;5.68;;;15.50;99.90;;;;;;4974866;28;20181;-95
2021/06/27 03:02:06;;;;;;;12.27;6.40;;;15.40;99.90;;;;;;4967259;28;20188;-96
2021/06/27 03:04:32;;;;;;;13.45;6.07;;;15.40;99.90;;;;;;4974987;28;20560;-96
2021/06/27 03:06:58;;;;;;;7.10;5.07;;;15.30;99.90;;;;;;4984935;28;20204;-96
2021/06/27 03:09:24;;;;;;;15.15;6.47;;;15.40;99.90;;;;;;4987124;28;20191;-95
2021/06/27 03:11:51;;;;;;;11.45;5.85;;;15.30;99.90;;;;;;4986350;28;20279;-96
2021/06/27 03:14:17;;;;;;;11.82;6.35;;;15.30;99.90;;;;;;4985504;28;20541;-94
2021/06/27 03:16:46;;;;;;;12.07;5.47;;;15.30;99.90;;;;;;4989271;28;20188;-96
2021/06/27 03:19:15;;;;;;;12.60;5.65;;;15.30;99.90;;;;;;4992476;28;20177;-96
2021/06/27 03:21:44;;;;;;;14.00;6.55;;;15.30;99.90;;;;;;4990838;28;20267;-96
2021/06/27 03:24:17;;;;;;;12.77;5.32;;;15.20;99.90;;;;;;4979416;28;20244;-96
2021/06/27 03:26:59;;;;;;;11.48;6.07;;;15.20;99.90;;;;;;4984095;23;20651;-88
2021/06/27 03:29:24;;;;;;;18.33;5.65;;;15.20;99.90;;;;;;4976079;28;20324;-87
2021/06/27 03:31:50;;;;;;;12.32;6.18;;;15.20;99.90;;;;;;4976211;28;20208;-88
2021/06/27 03:34:16;;;;;;;10.68;5.53;;;15.10;99.90;;;;;;4976404;28;20169;-88
2021/06/27 03:36:42;;;;;;;12.13;5.43;;;15.20;99.90;;;;;;4976239;28;20231;-88
2021/06/27 03:39:09;;;;;;;10.80;5.00;;;15.20;99.90;;;;;;4976430;28;20628;-87
2021/06/27 03:41:40;;;;;;;12.65;5.60;;;15.20;99.90;;;;;;4975980;28;20173;-87
2021/06/27 03:44:06;;;;;;;9.57;5.18;;;15.30;99.90;;;;;;4975098;28;20544;-88
2021/06/27 03:46:32;;;;;;;11.60;5.50;;;15.30;99.90;;;;;;4975934;28;20200;-88
2021/06/27 03:48:58;;;;;;;10.63;5.60;;;15.20;99.90;;;;;;4976075;28;20191;-87
2021/06/27 03:51:24;;;;;;;9.55;5.88;;;15.20;99.90;;;;;;4975678;28;20204;-88
2021/06/27 03:53:49;;;;;;;11.20;6.05;;;15.20;99.90;;;;;;4976028;28;20641;-88
2021/06/27 03:56:19;;;;;;;10.75;5.88;;;15.10;99.90;;;;;;4976980;28;20184;-88
2021/06/27 03:58:47;;;;;;;9.15;5.70;;;15.20;99.90;;;;;;4975401;28;20168;-88
2021/06/27 04:01:13;;;;;;;10.93;5.68;;;15.20;99.90;;;;;;4975670;28;20220;-88
2021/06/27 04:03:39;;;;;;;9.45;5.30;;;15.20;99.90;;;;;;4975381;28;20207;-88
2021/06/27 04:06:05;;;;;;;6.90;5.50;;;15.30;99.90;;;;;;4975373;28;20193;-88
2021/06/27 04:08:32;;;;;;;11.40;5.80;;;15.30;99.90;;;;;;4975548;28;20172;-88
2021/06/27 04:10:58;;;;;;;13.90;5.95;;;15.30;99.90;;;;;;4975469;28;20172;-87
2021/06/27 04:13:29;;;;;;;9.38;5.38;;;15.30;99.90;;;;;;4975133;28;20200;-88
2021/06/27 04:15:55;;;;;;;7.57;5.72;;;15.40;99.90;;;;;;4975282;28;20280;-87
2021/06/27 04:18:22;;;;;;;7.80;5.43;;;15.40;99.90;;;;;;4975502;28;20173;-87
2021/06/27 04:20:48;;;;;;;6.40;5.63;;;15.50;99.90;;;;;;4975396;28;20169;-87
2021/06/27 04:23:14;;;;;;;7.45;5.90;;;15.50;99.90;;;;;;4975217;28;20200;-88
2021/06/27 04:25:40;;;;;;;9.60;5.60;;;15.60;99.90;;;;;;4974813;28;20228;-88
2021/06/27 04:28:08;;;;;;;10.70;5.25;;;15.60;99.90;;;;;;4975269;28;20169;-88
2021/06/27 04:30:36;;;;;;;10.60;6.03;;;15.60;99.90;;;;;;4974960;28;20169;-88
2021/06/27 04:33:04;;;;;;;11.35;6.05;;;15.60;99.90;;;;;;4975091;28;20200;-88
2021/06/27 04:35:32;;;;;;;7.18;5.90;;;15.60;99.90;;;;;;4974878;28;20312;-88
2021/06/27 04:37:58;;;;;;;8.93;6.03;;;15.80;99.90;;;;;;4975074;28;20177;-89
2021/06/27 04:40:25;;;;;;;10.27;5.97;;;15.90;99.90;;;;;;4975075;28;20540;-89
2021/06/27 04:42:50;;;;;;;10.15;5.70;;;16.00;99.90;;;;;;4974791;28;20203;-88
2021/06/27 04:45:16;;;;;;;11.23;6.20;;;16.10;99.90;;;;;;4974959;28;20177;-88
2021/06/27 04:47:42;;;;;;;8.00;6.57;;;16.30;99.90;;;;;;4974912;28;20168;-88
2021/06/27 04:50:08;;;;;;;6.90;6.10;;;16.50;99.90;;;;;;4974677;28;20168;-88
2021/06/27 04:52:35;;;;;;;8.00;6.18;;;16.70;99.90;;;;;;4974592;28;20243;-88
2021/06/27 04:55:04;;;;;;;8.82;6.07;;;16.90;99.90;;;;;;4974642;28;20169;-89
2021/06/27 04:57:31;;;;;;;6.90;6.20;;;17.00;99.90;;;;;;4974480;28;20208;-88
2021/06/27 04:59:57;;;;;;;6.80;5.43;;;17.10;99.90;;;;;;4974689;28;20164;-89
2021/06/27 05:02:22;;;;;;;10.95;6.25;;;17.20;99.90;;;;;;4974535;28;20660;-88
2021/06/27 05:04:48;;;;;;;8.88;5.78;;;17.30;99.90;;;;;;4974678;28;20213;-88
2021/06/27 05:07:14;;;;;;;10.13;6.97;;;17.30;99.90;;;;;;4974297;28;20295;-89
2021/06/27 05:09:40;;;;;;;6.82;5.90;;;17.30;99.90;;;;;;4974438;28;20175;-88
2021/06/27 05:12:06;;;;;;;6.88;6.18;;;17.40;99.90;;;;;;4974375;28;20200;-89
2021/06/27 05:14:32;;;;;;;6.90;5.70;;;17.40;99.90;;;;;;4974363;28;20267;-88
2021/06/27 05:16:58;;;;;;;7.65;6.53;;;17.40;99.90;;;;;;4974279;28;20268;-88
2021/06/27 05:19:24;;;;;;;9.13;5.72;;;17.50;99.90;;;;;;4974343;28;20169;-90
2021/06/27 05:21:50;;;;;;;7.68;5.70;;;17.50;99.90;;;;;;4974647;28;20205;-90
2021/06/27 05:24:16;;;;;;;6.10;5.50;;;17.50;99.90;;;;;;4974033;28;20200;-90
2021/06/27 05:26:42;;;;;;;7.43;6.15;;;17.50;99.90;;;;;;4970775;28;20627;-90
2021/06/27 05:29:08;;;;;;;7.38;5.68;;;17.60;99.90;;;;;;4971169;28;20176;-90
2021/06/27 05:31:36;;;;;;;6.88;6.18;;;17.60;99.90;;;;;;4970764;28;20543;-90
2021/06/27 05:34:02;;;;;;;8.20;6.07;;;17.60;99.90;;;;;;4971189;28;20173;-89
2021/06/27 05:36:28;;;;;;;7.20;5.60;;;17.70;99.90;;;;;;4971022;28;20184;-90
2021/06/27 05:38:53;;;;;;;5.45;4.90;;;17.80;99.90;;;;;;4970967;28;20259;-90
2021/06/27 05:41:19;;;;;;;6.70;5.22;;;17.80;99.90;;;;;;4970968;28;20181;-90
2021/06/27 05:43:45;;;;;;;6.22;5.63;;;17.90;99.90;;;;;;4970892;28;20212;-90
2021/06/27 05:46:11;;;;;;;7.30;6.43;;;18.00;99.90;;;;;;4970814;28;20201;-90
2021/06/27 05:48:36;;;;;;;10.52;6.10;;;18.00;99.90;;;;;;4970984;28;20177;-90
2021/06/27 05:51:03;;;;;;;6.80;5.63;;;18.00;99.90;;;;;;4970761;28;20633;-90
2021/06/27 05:53:28;;;;;;;7.00;5.72;;;18.00;99.90;;;;;;4970368;28;20247;-90
2021/06/27 05:56:09;;;;;;;8.18;6.10;;;18.00;99.90;;;;;;4970869;28;20276;-90
2021/06/27 05:58:42;;;;;;;11.30;6.43;;;18.00;99.90;;;;;;4954723;28;20196;-89
2021/06/27 06:01:10;;;;;;;7.22;6.47;;;18.10;99.90;;;;;;4970840;28;20263;-90
2021/06/27 06:03:36;;;;;;;5.63;5.07;;;18.10;99.90;;;;;;4970783;28;20239;-90
2021/06/27 06:06:03;;;;;;;10.43;5.75;;;18.20;99.90;;;;;;4971771;28;20204;-90
2021/06/27 06:08:29;;;;;;;7.25;6.10;;;18.20;99.90;;;;;;4974862;28;20170;-90
2021/06/27 06:10:55;;;;;;;7.22;5.68;;;18.30;99.90;;;;;;4974922;28;20285;-89
2021/06/27 06:13:21;;;;;;;7.25;4.97;;;18.30;99.90;;;;;;4974745;28;20252;-90
2021/06/27 06:15:47;;;;;;;10.68;6.07;;;18.40;99.90;;;;;;4974659;28;20184;-90
2021/06/27 06:18:12;;;;;;;5.95;5.43;;;18.40;99.90;;;;;;4974382;28;20264;-90
2021/06/27 06:20:38;;;;;;;8.85;5.95;;;18.50;99.90;;;;;;4974531;28;20645;-90
2021/06/27 06:23:05;;;;;;;6.72;5.50;;;18.50;99.90;;;;;;4974359;28;20288;-90
2021/06/27 06:25:31;;;;;;;6.40;5.80;;;18.60;99.90;;;;;;4974146;28;20241;-90
2021/06/27 06:27:56;;;;;;;7.45;5.10;;;18.70;99.90;;;;;;4974378;28;20539;-90
2021/06/27 06:30:22;;;;;;;5.55;5.00;;;18.70;99.90;;;;;;4974655;28;20170;-90
2021/06/27 06:32:48;;;;;;;5.75;5.13;;;18.80;99.90;;;;;;4974335;28;20215;-89
2021/06/27 06:35:14;;;;;;;6.38;5.72;;;18.90;99.90;;;;;;4974702;28;20169;-90
2021/06/27 06:37:40;;;;;;;6.38;5.30;;;19.00;99.90;;;;;;4974305;28;20618;-90
2021/06/27 06:40:06;;;;;;;6.30;5.45;;;19.10;99.90;;;;;;4974160;28;20205;-90
2021/06/27 06:42:32;;;;;;;5.13;4.47;;;19.30;99.90;;;;;;4973582;28;20201;-90
2021/06/27 06:45:05;;;;;;;6.68;5.07;;;19.50;99.90;;;;;;4974070;28;20613;-90
2021/06/27 06:47:31;;;;;;;8.50;4.85;;;19.60;99.90;;;;;;4973965;28;20169;-90
2021/06/27 06:49:57;;;;;;;6.97;4.45;;;19.90;99.90;;;;;;4974312;28;20570;-91
2021/06/27 06:52:23;;;;;;;5.25;4.75;;;20.10;99.90;;;;;;4973613;28;20205;-90
2021/06/27 06:54:49;;;;;;;5.78;5.00;;;20.40;99.90;;;;;;4974121;28;20645;-89
2021/06/27 06:57:15;;;;;;;6.25;4.70;;;20.50;99.90;;;;;;4974499;28;20176;-90
2021/06/27 06:59:41;;;;;;;6.00;4.82;;;20.70;99.90;;;;;;4974143;28;20176;-91
2021/06/27 07:02:07;;;;;;;4.45;4.05;;;20.90;99.90;;;;;;4968164;28;20292;-91
2021/06/27 07:04:33;;;;;;;5.10;4.32;;;21.10;99.90;;;;;;4952520;28;20172;-90
2021/06/27 07:06:59;;;;;;;5.45;4.15;;;21.30;99.90;;;;;;4945910;28;20197;-90
2021/06/27 07:09:25;;;;;;;4.85;4.32;;;21.40;99.90;;;;;;4938328;29;20220;-92
2021/06/27 07:11:50;;;;;;;5.07;4.20;;;21.60;99.90;;;;;;4937987;29;20197;-91
2021/06/27 07:14:16;;;;;;;4.30;3.90;;;21.80;99.90;;;;;;4938231;29;20284;-90
2021/06/27 07:16:43;;;;;;;5.63;4.25;;;22.00;99.90;;;;;;4937758;29;20176;-89
2021/06/27 07:19:09;;;;;;;4.85;3.88;;;22.00;99.90;;;;;;4937926;29;20204;-90
2021/06/27 07:21:35;;;;;;;4.32;3.92;;;22.10;99.90;;;;;;4941102;29;20165;-90
2021/06/27 07:24:00;;;;;;;4.53;3.80;;;22.20;99.90;;;;;;4937960;29;20265;-90
2021/06/27 07:26:26;;;;;;;4.03;3.70;;;22.40;99.90;;;;;;4937726;29;20597;-91
2021/06/27 07:28:53;;;;;;;5.57;4.05;;;22.50;99.90;;;;;;4937980;29;20177;-91
2021/06/27 07:31:19;;;;;;;5.25;3.90;;;22.50;99.60;;;;;;4938125;29;20178;-90
2021/06/27 07:33:44;;;;;;;4.35;3.72;;;22.60;99.90;;;;;;4938647;29;20174;-90
2021/06/27 07:36:10;;;;;;;3.83;3.42;;;22.80;99.90;;;;;;4956143;29;20633;-90
2021/06/27 07:38:36;;;;;;;4.88;3.40;;;22.90;98.40;;;;;;4957402;28;20178;-90
2021/06/27 07:41:02;;;;;;;4.95;3.42;;;23.10;99.60;;;;;;4957674;28;20765;-90
2021/06/27 07:43:28;;;;;;;5.50;3.55;;;23.10;98.90;;;;;;4956839;28;20198;-90
2021/06/27 07:45:54;;;;;;;4.85;3.30;;;23.20;98.80;;;;;;4956773;28;20205;-90
2021/06/27 07:48:20;;;;;;;3.38;2.95;;;23.30;98.90;;;;;;4956815;28;20174;-91
2021/06/27 07:50:46;;;;;;;3.13;2.83;;;23.40;97.50;;;;;;4956654;28;20173;-89
2021/06/27 07:53:12;;;;;;;2.88;2.63;;;23.50;97.00;;;;;;4956852;28;20232;-89
2021/06/27 07:55:38;;;;;;;3.75;3.05;;;23.60;97.60;;;;;;4937921;28;20203;-89
2021/06/27 07:58:04;;;;;;;4.47;3.20;;;23.60;95.90;;;;;;4953032;29;20216;-89
2021/06/27 08:00:30;;;;;;;4.20;3.40;;;23.70;96.10;;;;;;4956224;28;20190;-90
2021/06/27 08:02:57;;;;;;;3.10;2.80;;;23.80;97.00;;;;;;4956500;28;20291;-90
2021/06/27 08:05:23;;;;;;;2.75;2.50;;;23.80;96.80;;;;;;4956648;28;20236;-90
2021/06/27 08:07:49;;;;;;;7.47;2.90;;;23.90;97.40;;;;;;4956196;28;20597;-90
2021/06/27 08:10:15;;;;;;;3.85;2.60;;;24.00;96.30;;;;;;4956339;28;20637;-90
2021/06/27 08:12:41;;;;;;;3.40;3.10;;;24.10;96.10;;;;;;4956179;28;20197;-90
2021/06/27 08:15:09;;;;;;;3.30;2.80;;;24.20;96.10;;;;;;4956613;28;20606;-90
2021/06/27 08:17:35;;;;;;;4.18;2.53;;;24.30;96.40;;;;;;4956467;28;20193;-90
2021/06/27 08:20:04;;;;;;;4.05;2.50;;;24.40;95.60;;;;;;4956019;28;20165;-89
2021/06/27 08:22:29;;;;;;;6.60;2.90;;;24.50;95.00;;;;;;4956276;28;20197;-89
2021/06/27 08:24:56;;;;;;;3.85;2.70;;;24.50;93.50;;;;;;4958301;28;20714;-90
2021/06/27 08:27:21;;;;;;;2.63;2.42;;;24.60;95.80;;;;;;4958985;28;20207;-90
2021/06/27 08:29:47;;;;;;;3.03;2.75;;;24.60;95.60;;;;;;4959067;28;20256;-90
2021/06/27 08:32:13;;;;;;;3.47;2.63;;;24.70;94.40;;;;;;4959362;28;20266;-89
2021/06/27 08:34:39;;;;;;;4.88;2.60;;;24.80;94.40;;;;;;4959184;28;20164;-90
2021/06/27 08:37:05;;;;;;;3.45;2.78;;;24.70;93.30;;;;;;4959168;28;20184;-90
2021/06/27 08:39:30;;;;;;;3.30;2.47;;;24.90;93.30;;;;;;4959311;28;20215;-90
2021/06/27 08:41:56;;;;;;;2.97;2.78;;;25.00;94.40;;;;;;4958958;28;20217;-90
2021/06/27 08:44:23;;;;;;;4.45;2.67;;;25.00;92.50;;;;;;4959083;28;20608;-90
2021/06/27 08:46:50;;;;;;;3.05;2.72;;;24.80;91.40;;;;;;4959106;28;20196;-90
2021/06/27 08:49:15;;;;;;;2.88;2.67;;;24.90;93.00;;;;;;4959136;28;20173;-90
2021/06/27 08:51:41;;;;;;;4.32;2.65;;;24.90;92.90;;;;;;4958594;28;20211;-90
2021/06/27 08:54:11;;;;;;;3.28;2.97;;;24.90;92.60;;;;;;4958624;28;20172;-90
2021/06/27 08:56:38;;;;;;;6.78;2.70;;;24.90;93.00;;;;;;4959581;28;20617;-90
2021/06/27 08:59:05;;;;;;;2.70;2.40;;;24.80;92.40;;;;;;4959111;28;20260;-90
2021/06/27 09:01:31;;;;;;;3.17;2.70;;;24.90;92.40;;;;;;4958825;28;20296;-90
2021/06/27 09:03:57;;;;;;;3.20;2.63;;;24.80;91.00;;;;;;4958543;28;20219;-90
2021/06/27 09:06:41;;;;;;;3.20;2.83;;;25.00;91.90;;;;;;4958642;28;20196;-90
2021/06/27 09:09:17;;;;;;;3.35;2.90;;;25.10;90.90;;;;;;4957999;28;20165;-90
2021/06/27 09:11:59;;;;;;;3.20;2.90;;;25.00;89.60;;;;;;4975078;28;20224;-90
2021/06/27 09:14:29;;;;;;;3.75;2.97;;;25.10;91.10;;;;;;4958572;28;20161;-90
2021/06/27 09:17:18;;;;;;;3.53;3.13;;;25.30;91.70;;;;;;4974581;28;20235;-89
2021/06/27 09:19:55;;;;;;;4.35;2.63;;;25.30;90.40;;;;;;4958533;28;20311;-90
2021/06/27 09:22:24;;;;;;;5.22;3.22;;;25.50;91.90;;;;;;4974552;28;20283;-89
2021/06/27 09:24:50;;;;;;;2.80;2.60;;;25.60;89.50;;;;;;4958180;28;20680;-90
2021/06/27 09:27:22;;;;;;;3.70;2.97;;;25.60;90.00;;;;;;4958210;28;20212;-90
2021/06/27 09:29:49;;;;;;;3.20;2.90;;;25.60;90.60;;;;;;4958019;28;20576;-90
2021/06/27 09:32:22;;;;;;;3.00;2.63;;;25.70;91.40;;;;;;4958012;28;20204;-89
2021/06/27 09:34:48;;;;;;;4.70;3.10;;;25.80;88.20;;;;;;4974046;28;20247;-90
2021/06/27 09:37:16;;;;;;;4.45;3.00;;;25.80;87.00;;;;;;4958220;28;20188;-90
2021/06/27 09:40:02;;;;;;;3.92;2.90;;;25.90;89.20;;;;;;4958329;28;20172;-90
2021/06/27 09:42:30;;;;;;;3.13;2.78;;;25.70;90.30;;;;;;4957693;28;20227;-89
2021/06/27 09:45:03;;;;;;;7.85;3.13;;;25.80;89.30;;;;;;4958305;28;20181;-89
2021/06/27 09:47:32;;;;;;;3.08;2.47;;;25.90;88.60;;;;;;4974253;28;20185;-90
2021/06/27 09:50:17;;;;;;;5.20;3.00;;;25.90;88.00;;;;;;4958207;28;20224;-89
2021/06/27 09:52:42;;;;;;;4.53;2.85;;;25.80;84.70;;;;;;4973885;28;20199;-91
2021/06/27 09:55:14;;;;;;;2.78;2.58;;;25.70;84.70;;;;;;4958014;28;20247;-90
2021/06/27 09:57:41;;;;;;;3.50;2.90;;;25.80;85.70;;;;;;4957993;28;20176;-90
2021/06/27 10:00:22;;;;;;;3.45;2.63;;;25.80;87.90;;;;;;4957613;28;20631;-90
2021/06/27 10:03:10;;;;;;;2.70;2.50;;;25.90;87.70;;;;;;4973738;28;20227;-90
2021/06/27 10:05:35;;;;;;;3.05;2.60;;;25.80;87.00;;;;;;4957634;28;20197;-90
2021/06/27 10:08:01;;;;;;;5.07;3.00;;;25.80;88.60;;;;;;4957869;28;20176;-89
2021/06/27 10:10:28;;;;;;;3.17;2.83;;;25.80;86.60;;;;;;4957413;28;20169;-90
2021/06/27 10:12:53;;;;;;;3.33;2.83;;;25.60;86.30;;;;;;4956985;28;20193;-90
2021/06/27 10:15:20;;;;;;;4.53;3.33;;;25.60;88.80;;;;;;4957652;28;20176;-90
2021/06/27 10:17:48;;;;;;;4.05;2.80;;;25.60;86.50;;;;;;4957870;28;20165;-90
2021/06/27 10:20:16;;;;;;;3.33;2.85;;;25.40;87.00;;;;;;4957628;28;20169;-90
2021/06/27 10:22:43;;;;;;;3.35;2.80;;;25.40;87.80;;;;;;4957514;28;20192;-89
2021/06/27 10:25:14;;;;;;;2.72;2.53;;;25.30;87.50;;;;;;4957827;28;20557;-89
2021/06/27 10:27:40;;;;;;;3.40;2.92;;;25.30;87.80;;;;;;4957597;28;20242;-90
2021/06/27 10:30:09;;;;;;;2.70;2.50;;;25.30;87.50;;;;;;4957719;28;20173;-89
2021/06/27 10:32:42;;;;;;;2.75;2.45;;;25.40;89.60;;;;;;4957510;28;20200;-89
2021/06/27 10:35:09;;;;;;;3.10;2.53;;;25.50;87.60;;;;;;4957350;28;20319;-90
2021/06/27 10:37:38;;;;;;;2.95;2.67;;;25.70;87.60;;;;;;4957726;28;20173;-89
2021/06/27 10:40:16;;;;;;;3.78;2.40;;;25.90;88.00;;;;;;4957721;28;20263;-90
2021/06/27 10:42:51;;;;;;;4.13;2.63;;;25.90;90.20;;;;;;4957291;28;20703;-90
2021/06/27 10:45:19;;;;;;;3.58;2.90;;;26.10;87.10;;;;;;4973434;28;20184;-89
2021/06/27 10:47:45;;;;;;;2.88;2.67;;;26.00;83.90;;;;;;4957572;28;20184;-89
2021/06/27 10:50:12;;;;;;;5.22;2.95;;;26.20;85.20;;;;;;4957652;28;20269;-90
2021/06/27 10:52:53;;;;;;;3.72;2.90;;;26.00;84.80;;;;;;4959274;28;20197;-90
2021/06/27 10:55:42;;;;;;;3.05;2.75;;;26.10;88.50;;;;;;4977103;28;20179;-90
2021/06/27 10:58:10;;;;;;;5.57;2.60;;;26.00;88.90;;;;;;4976787;28;20223;-90
2021/06/27 11:00:59;;;;;;;5.13;2.67;;;25.70;86.00;;;;;;4960811;28;20176;-89
2021/06/27 11:03:36;;;;;;;2.83;2.63;;;25.80;87.10;;;;;;4976667;28;20196;-89
2021/06/27 11:06:05;;;;;;;5.25;2.63;;;25.90;86.10;;;;;;4960637;28;20255;-90
2021/06/27 11:08:45;;;;;;;3.13;2.65;;;26.00;85.00;;;;;;4960687;28;20290;-90
2021/06/27 11:11:21;;;;;;;5.30;2.63;;;26.10;85.90;;;;;;4960585;28;20164;-91
2021/06/27 11:14:09;;;;;;;2.60;2.40;;;26.30;85.90;;;;;;4960424;28;20644;-91
2021/06/27 11:17:05;;;;;;;2.63;2.40;;;26.40;85.30;;;;;;4976988;28;20224;-90
2021/06/27 11:19:35;;;;;;;2.85;2.47;;;26.60;83.00;;;;;;4957968;28;20211;-91
2021/06/27 11:22:28;;;;;;;2.92;2.65;;;26.60;82.30;;;;;;4958693;28;20224;-90
2021/06/27 11:24:56;;;;;;;2.40;2.20;;;26.60;80.50;;;;;;4940344;28;20802;-91
2021/06/27 11:27:34;;;;;;;2.58;2.35;;;26.80;81.30;;;;;;4924402;29;20439;-90
2021/06/27 11:30:29;;;;;;;2.30;2.10;;;26.80;80.70;;;;;;4929376;29;20225;-90
2021/06/27 11:33:12;;;;;;;2.75;2.30;;;26.90;81.80;;;;;;4944906;29;20205;-90
2021/06/27 11:35:47;;;;;;;3.45;2.47;;;27.00;81.20;;;;;;4934962;29;20344;-90
2021/06/27 11:38:38;;;;;;;2.47;2.28;;;27.00;82.70;;;;;;4937854;29;20193;-90
2021/06/27 11:41:30;;;;;;;2.42;2.22;;;27.10;82.90;;;;;;4941543;29;20235;-89
2021/06/27 11:44:05;;;;;;;2.92;2.63;;;27.20;82.60;;;;;;4943655;29;20200;-89
2021/06/27 11:46:47;;;;;;;3.15;2.60;;;27.40;83.40;;;;;;4921818;29;20611;-90
2021/06/27 11:49:27;;;;;;;2.63;2.30;;;27.60;80.60;;;;;;4921976;29;20169;-90
2021/06/27 11:51:53;;;;;;;3.50;2.60;;;27.70;78.00;;;;;;4921687;29;20252;-90
2021/06/27 11:54:30;;;;;;;3.15;2.00;;;27.60;80.90;;;;;;4921687;29;20173;-89
2021/06/27 11:57:05;;;;;;;3.78;2.00;;;27.60;80.50;;;;;;4921732;29;20174;-90
2021/06/27 11:59:39;;;;;;;3.95;2.70;;;27.70;78.60;;;;;;4921753;29;20513;-89
2021/06/27 12:02:13;;;;;;;2.53;2.10;;;27.20;76.30;;;;;;4921527;29;20209;-90
2021/06/27 12:04:50;;;;;;;2.30;1.90;;;27.30;79.50;;;;;;4920839;29;20170;-90
2021/06/27 12:07:38;;;;;;;2.47;1.90;;;27.30;78.90;;;;;;4921403;29;20213;-90
2021/06/27 12:10:11;;;;;;;2.25;1.90;;;27.20;79.30;;;;;;4921620;29;20257;-89
2021/06/27 12:12:41;;;;;;;3.08;2.00;;;27.30;78.60;;;;;;4921214;29;20236;-90
2021/06/27 12:15:38;;;;;;;2.03;1.88;;;27.40;77.10;;;;;;4921509;29;20173;-89
2021/06/27 12:18:23;;;;;;;2.10;1.90;;;27.50;78.80;;;;;;4921521;29;20201;-90
2021/06/27 12:20:59;;;;;;;2.53;1.60;;;27.40;76.10;;;;;;4921193;29;20239;-91
2021/06/27 12:23:34;;;;;;;1.63;1.50;;;27.50;76.90;;;;;;4921224;29;20201;-90
2021/06/27 12:26:08;;;;;;;1.60;1.50;;;27.50;78.40;;;;;;4920928;29;20225;-89
2021/06/27 12:28:44;;;;;;;2.42;1.70;;;27.40;76.30;;;;;;4921089;29;20180;-90
2021/06/27 12:31:19;;;;;;;2.47;2.10;;;27.40;76.50;;;;;;4921212;29;20177;-90
2021/06/27 12:33:48;;;;;;;2.78;2.00;;;27.40;76.20;;;;;;4921149;29;20176;-90
2021/06/27 12:36:15;;;;;;;2.63;1.92;;;27.30;78.80;;;;;;4921010;29;20178;-90
2021/06/27 12:38:49;;;;;;;2.15;1.80;;;27.40;80.10;;;;;;4921018;29;20174;-90
2021/06/27 12:41:23;;;;;;;2.00;1.90;;;27.40;77.90;;;;;;4920991;29;20178;-90
2021/06/27 12:44:00;;;;;;;2.10;1.90;;;27.50;78.50;;;;;;4920875;29;20177;-90
2021/06/27 12:46:29;;;;;;;2.35;1.90;;;27.70;75.70;;;;;;4920759;29;20582;-90
2021/06/27 12:49:00;;;;;;;3.63;1.70;;;27.70;76.60;;;;;;4920669;29;20204;-90
2021/06/27 12:51:40;;;;;;;5.07;2.10;;;27.70;76.10;;;;;;4920696;29;20174;-90
2021/06/27 12:54:20;;;;;;;2.20;1.98;;;27.70;76.40;;;;;;4920703;29;20177;-90